createdAt,value
2018-01-23T00:01:49.754Z,8.30
2018-01-23T00:04:17.907Z,8.10
2018-01-23T00:06:46.018Z,8.30
2018-01-23T00:09:14.178Z,8.10
2018-01-23T00:11:43.204Z,8.30
2018-01-23T00:14:11.339Z,7.80
2018-01-23T00:16:39.496Z,8.30
2018-01-23T00:19:07.622Z,7.90
2018-01-23T00:21:35.744Z,7.60
2018-01-23T00:24:03.872Z,7.70
2018-01-23T00:26:31.995Z,7.80
2018-01-23T00:29:00.219Z,8.00
2018-01-23T00:31:28.319Z,7.90
2018-01-23T00:33:56.769Z,7.80
2018-01-23T00:36:24.879Z,7.70
2018-01-23T00:38:53.004Z,7.90
2018-01-23T00:41:21.145Z,7.90
2018-01-23T00:43:49.259Z,7.90
2018-01-23T00:46:17.395Z,8.00
2018-01-23T00:48:45.505Z,8.00
2018-01-23T00:51:14.383Z,8.00
2018-01-23T00:53:42.523Z,7.90
2018-01-23T00:56:10.651Z,8.30
2018-01-23T00:58:38.785Z,8.00
2018-01-23T01:01:06.903Z,8.10
2018-01-23T01:03:35.027Z,7.80
2018-01-23T01:06:03.163Z,8.00
2018-01-23T01:08:31.283Z,8.30
2018-01-23T01:11:00.203Z,8.20
2018-01-23T01:13:28.447Z,8.30
2018-01-23T01:15:57.344Z,8.20
2018-01-23T01:18:26.251Z,8.30
2018-01-23T01:20:54.372Z,8.30
2018-01-23T01:23:22.507Z,7.90
2018-01-23T01:25:50.622Z,8.00
2018-01-23T01:28:18.748Z,7.70
2018-01-23T01:30:46.887Z,8.00
2018-01-23T01:33:15.006Z,7.80
2018-01-23T01:35:43.140Z,8.00
2018-01-23T01:38:12.031Z,8.30
2018-01-23T01:40:40.924Z,8.00
2018-01-23T01:43:09.819Z,7.70
2018-01-23T01:45:38.703Z,8.00
2018-01-23T01:48:07.938Z,7.90
2018-01-23T01:50:36.051Z,7.80
2018-01-23T01:53:04.165Z,8.00
2018-01-23T01:55:33.051Z,7.90
2018-01-23T01:58:01.939Z,7.70
2018-01-23T02:00:30.859Z,7.70
2018-01-23T02:02:58.975Z,7.60
2018-01-23T02:05:27.093Z,8.00
2018-01-23T02:07:55.230Z,7.80
2018-01-23T02:10:23.352Z,7.70
2018-01-23T02:12:51.836Z,7.80
2018-01-23T02:15:19.960Z,8.00
2018-01-23T02:17:48.075Z,8.00
2018-01-23T02:20:16.212Z,7.70
2018-01-23T02:22:45.099Z,8.10
2018-01-23T02:25:13.234Z,8.30
2018-01-23T02:27:41.351Z,8.20
2018-01-23T02:30:10.240Z,7.90
2018-01-23T02:32:38.363Z,8.20
2018-01-23T02:35:06.483Z,7.70
2018-01-23T02:37:34.620Z,7.70
2018-01-23T02:40:02.739Z,8.00
2018-01-23T02:42:31.627Z,8.00
2018-01-23T02:45:00.536Z,7.70
2018-01-23T02:47:29.415Z,7.70
2018-01-23T02:49:58.314Z,7.70
2018-01-23T02:52:27.203Z,7.80
2018-01-23T02:54:56.079Z,7.90
2018-01-23T02:57:24.969Z,7.80
2018-01-23T02:59:53.079Z,7.80
2018-01-23T03:02:21.552Z,8.00
2018-01-23T03:04:49.677Z,7.70
2018-01-23T03:07:17.790Z,7.70
2018-01-23T03:09:46.696Z,7.80
2018-01-23T03:12:14.822Z,8.00
2018-01-23T03:14:43.253Z,7.90
2018-01-23T03:17:11.371Z,7.70
2018-01-23T03:19:39.512Z,7.70
2018-01-23T03:22:07.644Z,7.70
2018-01-23T03:24:36.527Z,7.50
2018-01-23T03:27:05.439Z,7.90
2018-01-23T03:29:34.327Z,7.90
2018-01-23T03:32:03.195Z,7.40
2018-01-23T03:34:31.332Z,7.90
2018-01-23T03:36:59.452Z,7.90
2018-01-23T03:39:28.680Z,7.80
2018-01-23T03:41:56.799Z,7.70
2018-01-23T03:44:24.902Z,8.00
2018-01-23T03:46:53.808Z,7.90
2018-01-23T03:49:21.924Z,7.40
2018-01-23T03:51:50.368Z,7.60
2018-01-23T03:54:18.479Z,7.90
2018-01-23T03:56:46.718Z,7.40
2018-01-23T03:59:14.841Z,7.50
2018-01-23T04:01:42.992Z,7.90
2018-01-23T04:04:11.088Z,7.40
2018-01-23T04:06:39.205Z,7.70
2018-01-23T04:09:07.325Z,7.90
2018-01-23T04:11:35.456Z,7.60
2018-01-23T04:14:03.566Z,7.70
2018-01-23T04:16:32.005Z,8.00
2018-01-23T04:19:00.129Z,7.90
2018-01-23T04:21:28.235Z,7.60
2018-01-23T04:23:57.140Z,7.70
2018-01-23T04:26:25.264Z,7.80
2018-01-23T04:28:53.381Z,7.80
2018-01-23T04:31:21.516Z,7.80
2018-01-23T04:33:49.624Z,7.80
2018-01-23T04:36:17.765Z,7.80
2018-01-23T04:38:45.890Z,7.90
2018-01-23T04:41:14.060Z,7.80
2018-01-23T04:43:42.179Z,7.40
2018-01-23T04:46:10.308Z,7.40
2018-01-23T04:48:38.434Z,7.90
2018-01-23T04:51:06.555Z,7.90
2018-01-23T04:53:34.675Z,7.40
2018-01-23T04:56:02.811Z,7.80
2018-01-23T04:58:30.935Z,7.80
2018-01-23T05:01:00.191Z,7.70
2018-01-23T05:03:28.295Z,7.60
2018-01-23T05:05:57.176Z,7.40
2018-01-23T05:08:25.409Z,7.50
2018-01-23T05:10:53.531Z,7.50
2018-01-23T05:13:22.064Z,7.90
2018-01-23T05:15:50.188Z,7.40
2018-01-23T05:18:18.304Z,7.70
2018-01-23T05:20:46.447Z,7.90
2018-01-23T05:23:14.567Z,7.70
2018-01-23T05:25:43.342Z,7.70
2018-01-23T05:28:11.476Z,8.00
2018-01-23T05:30:39.589Z,8.00
2018-01-23T05:33:07.719Z,7.90
2018-01-23T05:35:35.837Z,7.90
2018-01-23T05:38:04.313Z,7.70
2018-01-23T05:40:32.433Z,8.20
2018-01-23T05:43:00.583Z,8.00
2018-01-23T05:45:28.718Z,7.90
2018-01-23T05:47:57.620Z,8.30
2018-01-23T05:50:25.771Z,8.30
2018-01-23T05:52:54.650Z,8.10
2018-01-23T05:55:22.783Z,8.10
2018-01-23T05:57:50.915Z,8.30
2018-01-23T06:00:19.799Z,8.00
2018-01-23T06:02:48.712Z,8.20
2018-01-23T06:05:16.879Z,8.20
2018-01-23T06:07:45.781Z,8.20
2018-01-23T06:10:13.911Z,8.20
2018-01-23T06:12:42.156Z,8.20
2018-01-23T06:15:10.304Z,8.40
2018-01-23T06:17:38.422Z,8.40
2018-01-23T06:20:06.535Z,8.30
2018-01-23T06:22:35.432Z,8.30
2018-01-23T06:25:03.561Z,8.00
2018-01-23T06:27:31.712Z,8.10
2018-01-23T06:29:59.828Z,8.20
2018-01-23T06:32:27.966Z,8.00
2018-01-23T06:34:56.100Z,8.30
2018-01-23T06:37:24.288Z,8.00
2018-01-23T06:39:53.228Z,8.20
2018-01-23T06:42:21.357Z,8.40
2018-01-23T06:44:49.479Z,8.40
2018-01-23T06:47:17.631Z,8.30
2018-01-23T06:49:45.774Z,8.20
2018-01-23T06:52:13.915Z,8.10
2018-01-23T06:54:42.807Z,8.10
2018-01-23T06:57:11.683Z,8.30
2018-01-23T06:59:39.904Z,8.20
2018-01-23T07:02:08.026Z,8.10
2018-01-23T07:04:36.404Z,8.30
2018-01-23T07:07:04.519Z,8.10
2018-01-23T07:09:32.647Z,8.30
2018-01-23T07:12:00.788Z,7.70
2018-01-23T07:14:28.907Z,7.70
2018-01-23T07:16:57.040Z,7.90
2018-01-23T07:19:25.159Z,7.70
2018-01-23T07:21:54.049Z,8.20
2018-01-23T07:24:22.228Z,8.10
2018-01-23T07:26:50.320Z,7.80
2018-01-23T07:29:18.809Z,8.20
2018-01-23T07:31:46.936Z,8.00
2018-01-23T07:34:15.043Z,8.30
2018-01-23T07:36:43.175Z,8.00
2018-01-23T07:39:11.511Z,8.10
2018-01-23T07:41:39.640Z,8.30
2018-01-23T07:44:07.752Z,8.30
2018-01-23T07:46:35.868Z,8.30
2018-01-23T07:49:04.002Z,8.30
2018-01-23T07:51:32.114Z,8.30
2018-01-23T07:54:00.260Z,8.30
2018-01-23T07:56:28.377Z,8.30
2018-01-23T07:58:56.496Z,8.20
2018-01-23T08:01:24.627Z,8.40
2018-01-23T08:03:52.745Z,8.50
2018-01-23T08:06:20.916Z,8.30
2018-01-23T08:08:49.812Z,8.10
2018-01-23T08:11:17.930Z,8.30
2018-01-23T08:13:46.129Z,8.60
2018-01-23T08:16:15.007Z,8.60
2018-01-23T08:18:43.515Z,8.60
2018-01-23T08:21:11.628Z,8.60
2018-01-23T08:23:39.741Z,8.50
2018-01-23T08:26:08.652Z,8.60
2018-01-23T08:28:37.540Z,8.40
2018-01-23T08:31:06.549Z,8.70
2018-01-23T08:33:35.436Z,8.70
2018-01-23T08:36:03.564Z,8.30
2018-01-23T08:38:31.689Z,8.50
2018-01-23T08:40:59.808Z,8.70
2018-01-23T08:43:27.947Z,8.70
2018-01-23T08:45:56.068Z,8.60
2018-01-23T08:48:24.183Z,8.50
2018-01-23T08:50:52.320Z,8.70
2018-01-23T08:53:20.436Z,8.70
2018-01-23T08:55:49.356Z,8.70
2018-01-23T08:58:17.477Z,8.60
2018-01-23T09:00:45.604Z,8.60
2018-01-23T09:03:13.743Z,9.00
2018-01-23T09:05:41.861Z,8.70
2018-01-23T09:08:10.000Z,9.00
2018-01-23T09:10:38.116Z,8.80
2018-01-23T09:13:06.232Z,8.80
2018-01-23T09:15:34.367Z,8.60
2018-01-23T09:18:03.260Z,8.50
2018-01-23T09:20:31.387Z,9.00
2018-01-23T09:22:59.507Z,8.50
2018-01-23T09:25:28.431Z,8.90
2018-01-23T09:27:56.551Z,9.00
2018-01-23T09:30:24.779Z,8.90
2018-01-23T09:32:54.016Z,8.80
2018-01-23T09:35:22.224Z,9.00
2018-01-23T09:37:51.114Z,9.00
2018-01-23T09:40:20.060Z,8.90
2018-01-23T09:42:48.179Z,8.80
2018-01-23T09:45:17.156Z,9.00
2018-01-23T09:47:45.279Z,9.00
2018-01-23T09:50:13.417Z,8.90
2018-01-23T09:52:42.332Z,8.80
2018-01-23T09:55:10.460Z,8.90
2018-01-23T09:57:38.602Z,9.00
2018-01-23T10:00:06.711Z,8.90
2018-01-23T10:02:34.834Z,9.00
2018-01-23T10:05:03.010Z,8.90
2018-01-23T10:07:31.127Z,9.00
2018-01-23T10:09:59.267Z,8.90
2018-01-23T10:12:27.375Z,8.80
2018-01-23T10:14:55.500Z,9.30
2018-01-23T10:17:23.623Z,9.20
2018-01-23T10:19:51.748Z,9.40
2018-01-23T10:22:19.896Z,9.30
2018-01-23T10:24:48.772Z,9.50
2018-01-23T10:27:16.968Z,9.30
2018-01-23T10:29:45.897Z,9.80
2018-01-23T10:32:14.081Z,9.50
2018-01-23T10:34:42.205Z,9.60
2018-01-23T10:37:11.106Z,9.40
2018-01-23T10:39:39.219Z,9.40
2018-01-23T10:42:07.373Z,9.40
2018-01-23T10:44:35.484Z,9.40
2018-01-23T10:47:03.631Z,9.40
2018-01-23T10:49:31.765Z,9.50
2018-01-23T10:52:00.674Z,9.40
2018-01-23T10:54:28.788Z,9.40
2018-01-23T10:56:56.920Z,9.40
2018-01-23T10:59:25.063Z,9.20
2018-01-23T11:01:53.269Z,9.70
2018-01-23T11:04:21.378Z,9.70
2018-01-23T11:06:49.500Z,9.80
2018-01-23T11:09:17.690Z,9.80
2018-01-23T11:11:45.803Z,9.70
2018-01-23T11:14:13.911Z,9.70
2018-01-23T11:16:42.793Z,9.80
2018-01-23T11:19:11.691Z,9.80
2018-01-23T11:21:40.580Z,9.70
2018-01-23T11:24:09.493Z,9.50
2018-01-23T11:26:37.616Z,9.80
2018-01-23T11:29:05.736Z,9.80
2018-01-23T11:31:34.221Z,9.80
2018-01-23T11:34:02.435Z,9.80
2018-01-23T11:36:30.556Z,9.80
2018-01-23T11:38:59.444Z,9.60
2018-01-23T11:41:28.414Z,9.60
2018-01-23T11:43:56.525Z,9.80
2018-01-23T11:46:24.653Z,9.90
2018-01-23T11:48:52.783Z,10.00
2018-01-23T11:51:20.911Z,9.90
2018-01-23T11:53:49.030Z,10.20
2018-01-23T11:56:17.160Z,10.10
2018-01-23T11:58:45.281Z,9.70
2018-01-23T12:01:13.398Z,9.90
2018-01-23T12:03:41.515Z,10.10
2018-01-23T12:06:09.644Z,10.10
2018-01-23T12:08:38.067Z,9.70
2018-01-23T12:11:06.188Z,10.10
2018-01-23T12:13:34.295Z,9.80
2018-01-23T12:16:03.191Z,10.20
2018-01-23T12:18:31.309Z,10.00
2018-01-23T12:20:59.450Z,10.00
2018-01-23T12:23:27.571Z,10.30
2018-01-23T12:25:55.696Z,10.20
2018-01-23T12:28:23.834Z,10.10
2018-01-23T12:30:51.956Z,9.80
2018-01-23T12:33:20.095Z,10.10
2018-01-23T12:35:48.975Z,10.50
2018-01-23T12:38:17.859Z,10.50
2018-01-23T12:40:45.984Z,10.40
2018-01-23T12:43:14.092Z,10.30
2018-01-23T12:45:42.233Z,10.50
2018-01-23T12:48:10.351Z,10.20
2018-01-23T12:50:38.475Z,10.50
2018-01-23T12:53:06.608Z,10.20
2018-01-23T12:55:35.497Z,10.10
2018-01-23T12:58:04.404Z,10.30
2018-01-23T13:00:33.311Z,10.10
2018-01-23T13:03:01.425Z,10.00
2018-01-23T13:05:29.572Z,10.20
2018-01-23T13:07:57.696Z,10.30
2018-01-23T13:10:26.600Z,10.10
2018-01-23T13:12:55.488Z,10.10
2018-01-23T13:15:24.373Z,10.50
2018-01-23T13:17:53.273Z,10.10
2018-01-23T13:20:22.186Z,10.40
2018-01-23T13:22:51.487Z,10.50
2018-01-23T13:25:19.611Z,10.60
2018-01-23T13:27:47.741Z,10.60
2018-01-23T13:30:15.884Z,10.50
2018-01-23T13:32:44.768Z,10.50
2018-01-23T13:35:13.676Z,10.50
2018-01-23T13:37:41.800Z,10.70
2018-01-23T13:40:09.920Z,10.70
2018-01-23T13:42:38.829Z,11.30
2018-01-23T13:45:06.951Z,11.60
2018-01-23T13:47:35.177Z,11.70
2018-01-23T13:50:03.267Z,11.30
2018-01-23T13:52:31.396Z,11.50
2018-01-23T13:55:00.313Z,11.70
2018-01-23T13:57:28.487Z,11.70
2018-01-23T13:59:56.615Z,11.60
2018-01-23T14:02:24.728Z,11.40
2018-01-23T14:04:52.854Z,11.30
2018-01-23T14:07:20.977Z,11.30
2018-01-23T14:09:49.092Z,11.90
2018-01-23T14:12:17.224Z,11.70
2018-01-23T14:14:45.404Z,12.50
2018-01-23T14:17:13.535Z,12.40
2018-01-23T14:19:41.750Z,12.50
2018-01-23T14:22:09.853Z,11.90
2018-01-23T14:24:37.993Z,11.30
2018-01-23T14:27:06.107Z,11.30
2018-01-23T14:29:34.240Z,11.30
2018-01-23T14:32:02.361Z,11.60
2018-01-23T14:34:30.589Z,11.60
2018-01-23T14:36:58.764Z,11.70
2018-01-23T14:39:26.867Z,11.40
2018-01-23T14:41:54.995Z,11.40
2018-01-23T14:44:23.124Z,11.10
2018-01-23T14:46:51.243Z,11.00
2018-01-23T14:49:19.372Z,11.00
2018-01-23T14:51:47.495Z,11.10
2018-01-23T14:54:15.636Z,10.90
2018-01-23T14:56:43.763Z,11.10
2018-01-23T14:59:11.920Z,10.80
2018-01-23T15:01:40.035Z,10.90
2018-01-23T15:04:08.270Z,11.00
2018-01-23T15:06:36.741Z,10.80
2018-01-23T15:09:04.860Z,11.10
2018-01-23T15:11:33.099Z,10.60
2018-01-23T15:14:01.257Z,10.50
2018-01-23T15:16:29.347Z,10.60
2018-01-23T15:18:57.495Z,10.70
2018-01-23T15:21:26.379Z,10.40
2018-01-23T15:23:55.259Z,10.50
2018-01-23T15:26:23.393Z,10.50
2018-01-23T15:28:51.507Z,10.70
2018-01-23T15:31:19.648Z,10.70
2018-01-23T15:33:47.761Z,10.60
2018-01-23T15:36:16.685Z,10.50
2018-01-23T15:38:44.803Z,10.60
2018-01-23T15:41:12.932Z,10.40
2018-01-23T15:43:41.405Z,10.50
2018-01-23T15:46:09.519Z,10.50
2018-01-23T15:48:38.580Z,10.00
2018-01-23T15:51:06.726Z,10.70
2018-01-23T15:53:34.832Z,10.60
2018-01-23T15:56:02.973Z,10.50
2018-01-23T15:58:31.861Z,10.50
2018-01-23T16:01:00.751Z,10.50
2018-01-23T16:03:29.644Z,10.10
2018-01-23T16:05:58.596Z,10.50
2018-01-23T16:08:26.727Z,10.60
2018-01-23T16:10:55.603Z,10.20
2018-01-23T16:13:24.831Z,10.20
2018-01-23T16:15:52.956Z,10.20
2018-01-23T16:18:21.088Z,10.20
2018-01-23T16:20:49.216Z,10.40
2018-01-23T16:23:18.096Z,10.10
2018-01-23T16:25:46.235Z,10.50
2018-01-23T16:28:14.348Z,10.40
2018-01-23T16:30:42.469Z,10.10
2018-01-23T16:33:10.630Z,10.20
2018-01-23T16:35:38.747Z,10.20
2018-01-23T16:38:06.981Z,10.20
2018-01-23T16:40:35.080Z,10.10
2018-01-23T16:43:03.195Z,10.10
2018-01-23T16:45:32.093Z,10.20
2018-01-23T16:48:00.984Z,10.30
2018-01-23T16:50:30.182Z,10.30
2018-01-23T16:52:59.080Z,10.30
2018-01-23T16:55:28.089Z,10.20
2018-01-23T16:57:56.227Z,10.10
2018-01-23T17:00:24.344Z,10.00
2018-01-23T17:02:52.739Z,10.10
2018-01-23T17:05:20.890Z,10.20
2018-01-23T17:07:49.006Z,10.50
2018-01-23T17:10:17.144Z,10.20
2018-01-23T17:12:45.254Z,10.40
2018-01-23T17:15:13.397Z,10.00
2018-01-23T17:17:41.520Z,10.20
2018-01-23T17:20:10.405Z,10.40
2018-01-23T17:22:38.531Z,10.00
2018-01-23T17:25:06.692Z,10.20
2018-01-23T17:27:35.143Z,10.40
2018-01-23T17:30:03.232Z,10.40
2018-01-23T17:32:32.140Z,10.60
2018-01-23T17:35:00.263Z,10.70
2018-01-23T17:37:28.381Z,10.60
2018-01-23T17:39:56.963Z,10.50
2018-01-23T17:42:25.097Z,10.50
2018-01-23T17:44:53.222Z,10.50
2018-01-23T17:47:21.363Z,10.30
2018-01-23T17:49:50.238Z,10.50
2018-01-23T17:52:18.384Z,10.50
2018-01-23T17:54:46.487Z,10.50
2018-01-23T17:57:14.621Z,10.60
2018-01-23T17:59:42.752Z,10.50
2018-01-23T18:02:11.622Z,10.50
2018-01-23T18:04:40.146Z,10.60
2018-01-23T18:07:08.267Z,10.50
2018-01-23T18:09:36.396Z,10.50
2018-01-23T18:12:04.523Z,10.50
2018-01-23T18:14:32.634Z,10.60
2018-01-23T18:17:00.796Z,10.60
2018-01-23T18:19:29.684Z,10.50
2018-01-23T18:21:58.583Z,10.70
2018-01-23T18:24:26.701Z,10.30
2018-01-23T18:26:54.813Z,10.60
2018-01-23T18:29:23.715Z,10.40
2018-01-23T18:31:51.828Z,10.50
2018-01-23T18:34:20.280Z,10.10
2018-01-23T18:36:49.154Z,10.50
2018-01-23T18:39:18.027Z,10.30
2018-01-23T18:41:46.163Z,10.50
2018-01-23T18:44:14.285Z,10.40
2018-01-23T18:46:43.180Z,10.40
2018-01-23T18:49:12.064Z,10.60
2018-01-23T18:51:40.987Z,10.40
2018-01-23T18:54:09.867Z,10.50
2018-01-23T18:56:37.970Z,10.20
2018-01-23T18:59:06.109Z,10.10
2018-01-23T19:01:34.991Z,10.50
2018-01-23T19:04:03.872Z,10.50
2018-01-23T19:06:32.775Z,10.20
2018-01-23T19:09:01.639Z,10.40
2018-01-23T19:11:29.771Z,10.50
2018-01-23T19:13:57.886Z,10.50
2018-01-23T19:16:26.071Z,10.50
2018-01-23T19:18:54.155Z,10.50
2018-01-23T19:21:23.049Z,10.50
2018-01-23T19:23:51.930Z,10.30
2018-01-23T19:26:20.838Z,10.50
2018-01-23T19:28:49.029Z,10.40
2018-01-23T19:31:17.119Z,10.40
2018-01-23T19:33:45.247Z,10.50
2018-01-23T19:36:14.119Z,10.50
2018-01-23T19:38:42.263Z,10.40
2018-01-23T19:41:10.387Z,10.40
2018-01-23T19:43:39.268Z,10.50
2018-01-23T19:46:08.193Z,10.40
2018-01-23T19:48:36.287Z,10.50
2018-01-23T19:51:04.431Z,10.60
2018-01-23T19:53:32.559Z,10.60
2018-01-23T19:56:00.679Z,10.40
2018-01-23T19:58:28.800Z,10.50
2018-01-23T20:00:56.936Z,10.60
2018-01-23T20:03:25.096Z,10.60
2018-01-23T20:05:53.972Z,10.50
2018-01-23T20:08:23.189Z,10.50
2018-01-23T20:10:51.303Z,10.40
2018-01-23T20:13:19.418Z,10.50
2018-01-23T20:15:48.318Z,10.70
2018-01-23T20:18:16.480Z,10.90
2018-01-23T20:20:45.682Z,10.70
2018-01-23T20:23:14.559Z,10.90
2018-01-23T20:25:42.770Z,10.50
2018-01-23T20:28:11.661Z,10.60
2018-01-23T20:30:39.762Z,10.90
2018-01-23T20:33:07.901Z,10.90
2018-01-23T20:35:36.023Z,10.80
2018-01-23T20:38:04.132Z,10.50
2018-01-23T20:40:33.043Z,10.80
2018-01-23T20:43:01.153Z,10.70
2018-01-23T20:45:29.297Z,11.00
2018-01-23T20:47:57.408Z,10.90
2018-01-23T20:50:25.510Z,10.90
2018-01-23T20:52:54.412Z,11.00
2018-01-23T20:55:22.527Z,10.90
2018-01-23T20:57:50.673Z,10.90
2018-01-23T21:00:18.763Z,10.90
2018-01-23T21:02:46.867Z,11.00
2018-01-23T21:05:15.004Z,10.90
2018-01-23T21:07:43.111Z,11.00
2018-01-23T21:10:11.340Z,10.80
2018-01-23T21:12:39.447Z,10.90
2018-01-23T21:15:07.551Z,10.90
2018-01-23T21:17:35.687Z,10.80
2018-01-23T21:20:03.848Z,10.90
2018-01-23T21:22:31.981Z,10.90
2018-01-23T21:25:00.896Z,11.00
2018-01-23T21:27:29.003Z,11.10
2018-01-23T21:29:57.138Z,10.80
2018-01-23T21:32:25.263Z,11.00
2018-01-23T21:34:53.383Z,10.90
2018-01-23T21:37:21.491Z,11.10
2018-01-23T21:39:49.603Z,10.80
2018-01-23T21:42:18.491Z,11.10
2018-01-23T21:44:47.378Z,10.90
2018-01-23T21:47:15.592Z,10.80
2018-01-23T21:49:43.687Z,10.90
2018-01-23T21:52:11.807Z,10.90
2018-01-23T21:54:40.691Z,10.90
2018-01-23T21:57:08.803Z,10.90
2018-01-23T21:59:36.951Z,10.90
2018-01-23T22:02:05.851Z,10.90
2018-01-23T22:04:34.734Z,10.90
2018-01-23T22:07:03.622Z,10.90
2018-01-23T22:09:32.496Z,10.80
2018-01-23T22:12:01.003Z,10.90
2018-01-23T22:14:29.882Z,11.00
2018-01-23T22:16:58.768Z,11.10
2018-01-23T22:19:26.910Z,11.10
2018-01-23T22:21:55.019Z,10.80
2018-01-23T22:24:23.924Z,11.00
2018-01-23T22:26:52.794Z,10.90
2018-01-23T22:29:21.685Z,11.00
2018-01-23T22:31:49.815Z,10.90
2018-01-23T22:34:17.935Z,10.90
2018-01-23T22:36:46.861Z,11.00
2018-01-23T22:39:14.980Z,11.10
2018-01-23T22:41:43.095Z,10.90
2018-01-23T22:44:11.226Z,11.00
2018-01-23T22:46:39.362Z,10.80
2018-01-23T22:49:08.267Z,10.90
2018-01-23T22:51:36.382Z,10.80
2018-01-23T22:54:05.329Z,10.90
2018-01-23T22:56:33.460Z,10.90
2018-01-23T22:59:02.343Z,11.20
2018-01-23T23:01:31.569Z,11.20
2018-01-23T23:03:59.675Z,11.30
2018-01-23T23:06:27.791Z,11.10
2018-01-23T23:08:56.707Z,11.30
2018-01-23T23:11:25.573Z,11.00
2018-01-23T23:13:54.484Z,10.90
2018-01-23T23:16:22.607Z,11.20
2018-01-23T23:18:50.714Z,10.90
2018-01-23T23:21:19.606Z,11.00
2018-01-23T23:23:48.498Z,10.80
2018-01-23T23:26:17.390Z,10.80
2018-01-23T23:28:46.403Z,10.90
2018-01-23T23:31:14.533Z,11.00
2018-01-23T23:33:42.691Z,10.90
2018-01-23T23:36:10.799Z,10.90
2018-01-23T23:38:39.695Z,11.00
2018-01-23T23:41:08.577Z,10.90
2018-01-23T23:43:37.471Z,11.50
2018-01-23T23:46:06.467Z,11.30
2018-01-23T23:48:35.350Z,11.30
2018-01-23T23:51:04.251Z,11.30
2018-01-23T23:53:33.119Z,11.50
2018-01-23T23:56:01.233Z,11.10
2018-01-23T23:58:29.459Z,11.30
